createdAt,value
2022-07-29T00:00:18.602Z,12.00
2022-07-29T00:03:40.252Z,14.00
2022-07-29T00:06:46.591Z,14.33
2022-07-29T00:09:52.537Z,12.00
2022-07-29T00:12:59.714Z,14.00
2022-07-29T00:16:04.880Z,14.00
2022-07-29T00:19:10.409Z,14.00
2022-07-29T00:22:15.016Z,14.00
2022-07-29T00:25:19.657Z,13.00
2022-07-29T00:28:25.845Z,13.00
2022-07-29T00:31:30.346Z,12.67
2022-07-29T00:34:51.813Z,13.33
2022-07-29T00:37:56.001Z,13.00
2022-07-29T00:41:00.288Z,16.00
2022-07-29T00:44:08.078Z,13.33
2022-07-29T00:47:14.281Z,13.67
2022-07-29T00:50:19.388Z,15.33
2022-07-29T00:53:24.419Z,12.33
2022-07-29T00:56:29.353Z,14.67
2022-07-29T00:59:35.586Z,13.00
2022-07-29T01:02:42.141Z,12.33
2022-07-29T01:05:51.465Z,16.33
2022-07-29T01:08:57.838Z,12.67
2022-07-29T01:12:02.560Z,14.00
2022-07-29T01:15:15.355Z,14.67
2022-07-29T01:18:24.558Z,13.00
2022-07-29T01:21:54.797Z,16.33
2022-07-29T01:25:17.436Z,15.33
2022-07-29T01:28:44.260Z,14.00
2022-07-29T01:31:59.134Z,15.00
2022-07-29T01:35:11.589Z,14.00
2022-07-29T01:38:23.339Z,15.00
2022-07-29T01:41:31.094Z,13.00
2022-07-29T01:44:40.897Z,14.33
2022-07-29T01:47:57.607Z,14.33
2022-07-29T01:51:10.067Z,12.33
2022-07-29T01:54:22.348Z,13.00
2022-07-29T01:57:30.980Z,14.00
2022-07-29T02:00:38.463Z,15.00
2022-07-29T02:03:46.388Z,14.33
2022-07-29T02:06:53.860Z,15.33
2022-07-29T02:10:01.162Z,14.00
2022-07-29T02:13:06.809Z,12.67
2022-07-29T02:16:14.956Z,16.00
2022-07-29T02:19:21.101Z,12.67
2022-07-29T02:22:26.827Z,14.33
2022-07-29T02:25:38.071Z,14.00
2022-07-29T02:28:43.705Z,13.00
2022-07-29T02:31:53.328Z,12.00
2022-07-29T02:35:00.862Z,14.00
2022-07-29T02:38:23.648Z,14.67
2022-07-29T02:41:33.295Z,14.25
2022-07-29T02:44:40.445Z,14.00
2022-07-29T02:48:07.165Z,14.00
2022-07-29T02:51:43.390Z,15.75
2022-07-29T02:54:48.334Z,15.50
2022-07-29T02:58:00.901Z,14.50
2022-07-29T03:01:06.934Z,15.50
2022-07-29T03:04:15.531Z,13.25
2022-07-29T03:07:22.030Z,13.00
2022-07-29T03:10:29.256Z,15.00
2022-07-29T03:13:33.911Z,14.75
2022-07-29T03:16:41.392Z,13.00
2022-07-29T03:19:47.434Z,15.75
2022-07-29T03:22:52.174Z,13.75
2022-07-29T03:25:56.493Z,13.00
2022-07-29T03:29:03.187Z,13.00
2022-07-29T03:32:09.100Z,14.50
2022-07-29T03:35:17.968Z,15.25
2022-07-29T03:38:27.918Z,16.00
2022-07-29T03:41:33.989Z,15.00
2022-07-29T03:44:44.194Z,14.25
2022-07-29T03:47:57.036Z,13.00
2022-07-29T03:51:05.945Z,13.50
2022-07-29T03:54:11.518Z,16.25
2022-07-29T03:57:17.605Z,15.50
2022-07-29T04:00:22.116Z,15.00
2022-07-29T04:03:26.322Z,14.25
2022-07-29T04:06:40.536Z,16.75
2022-07-29T04:09:44.574Z,12.00
2022-07-29T04:12:48.692Z,14.25
2022-07-29T04:15:52.651Z,14.00
2022-07-29T04:18:57.029Z,15.00
2022-07-29T04:22:03.918Z,17.00
2022-07-29T04:25:09.323Z,14.33
2022-07-29T04:28:17.213Z,13.00
2022-07-29T04:31:25.866Z,11.00
2022-07-29T04:34:30.871Z,13.00
2022-07-29T04:37:36.751Z,13.00
2022-07-29T04:40:41.201Z,13.00
2022-07-29T04:43:45.996Z,13.00
2022-07-29T04:46:51.350Z,14.00
2022-07-29T04:49:57.401Z,13.00
2022-07-29T04:53:02.875Z,14.67
2022-07-29T04:56:07.955Z,16.33
2022-07-29T04:59:13.702Z,17.67
2022-07-29T05:02:18.347Z,16.67
2022-07-29T05:05:22.382Z,15.00
2022-07-29T05:08:28.632Z,16.00
2022-07-29T05:11:34.206Z,15.33
2022-07-29T05:14:38.477Z,16.33
2022-07-29T05:17:42.335Z,17.00
2022-07-29T05:20:46.874Z,18.00
2022-07-29T05:23:52.836Z,19.33
2022-07-29T05:26:57.386Z,16.33
2022-07-29T05:30:01.395Z,16.33
2022-07-29T05:33:08.356Z,16.00
2022-07-29T05:36:32.788Z,15.00
2022-07-29T05:39:48.526Z,15.33
2022-07-29T05:42:53.670Z,15.67
2022-07-29T05:46:00.693Z,14.67
2022-07-29T05:49:05.619Z,18.00
2022-07-29T05:52:14.186Z,15.67
2022-07-29T05:55:23.392Z,14.33
2022-07-29T05:58:36.095Z,15.67
2022-07-29T06:01:43.586Z,15.33
2022-07-29T06:04:49.935Z,15.33
2022-07-29T06:07:54.755Z,15.33
2022-07-29T06:11:03.357Z,12.67
2022-07-29T06:14:09.169Z,16.00
2022-07-29T06:17:15.169Z,12.00
2022-07-29T06:20:27.149Z,14.00
2022-07-29T06:23:33.881Z,13.33
2022-07-29T06:26:43.248Z,14.00
2022-07-29T06:29:51.131Z,15.33
2022-07-29T06:32:56.292Z,13.67
2022-07-29T06:36:02.426Z,14.00
2022-07-29T06:39:08.882Z,11.33
2022-07-29T06:42:18.628Z,13.00
2022-07-29T06:45:25.562Z,15.67
2022-07-29T06:48:35.942Z,12.33
2022-07-29T06:51:41.077Z,13.33
2022-07-29T06:55:13.099Z,12.67
2022-07-29T06:58:32.130Z,13.00
2022-07-29T07:01:41.233Z,12.00
2022-07-29T07:04:46.668Z,13.00
2022-07-29T07:07:57.209Z,14.00
2022-07-29T07:11:02.266Z,13.00
2022-07-29T07:14:09.534Z,13.67
2022-07-29T07:17:17.298Z,12.33
2022-07-29T07:20:23.442Z,4.00
2022-07-29T07:23:31.509Z,11.33
2022-07-29T07:26:36.851Z,11.00
2022-07-29T07:29:44.274Z,12.00
2022-07-29T07:32:50.987Z,14.33
2022-07-29T07:35:55.493Z,12.00
2022-07-29T07:39:00.086Z,13.00
2022-07-29T07:42:08.191Z,12.33
2022-07-29T07:45:16.582Z,11.33
2022-07-29T07:48:21.883Z,14.00
2022-07-29T07:51:28.976Z,14.00
2022-07-29T07:54:34.253Z,13.00
2022-07-29T07:57:41.136Z,12.67
2022-07-29T08:00:48.885Z,13.00
2022-07-29T08:03:53.494Z,13.00
2022-07-29T08:07:00.999Z,12.00
2022-07-29T08:10:06.901Z,12.00
2022-07-29T08:13:13.551Z,14.67
2022-07-29T08:16:23.295Z,12.00
2022-07-29T08:19:28.543Z,14.00
2022-07-29T08:22:35.267Z,14.00
2022-07-29T08:25:40.789Z,11.67
2022-07-29T08:28:51.456Z,12.33
2022-07-29T08:31:58.187Z,12.67
2022-07-29T08:35:02.795Z,12.33
2022-07-29T08:38:08.391Z,14.00
2022-07-29T08:41:14.268Z,15.67
2022-07-29T08:44:22.305Z,12.33
2022-07-29T08:47:39.913Z,13.00
2022-07-29T08:50:46.748Z,15.00
2022-07-29T08:53:53.141Z,15.67
2022-07-29T08:57:00.592Z,13.00
2022-07-29T09:00:11.794Z,14.00
2022-07-29T09:03:20.572Z,16.33
2022-07-29T09:06:29.007Z,14.33
2022-07-29T09:09:34.033Z,12.00
2022-07-29T09:12:39.042Z,14.00
2022-07-29T09:15:43.399Z,14.33
2022-07-29T09:18:49.764Z,16.33
2022-07-29T09:22:03.286Z,14.00
2022-07-29T09:25:10.188Z,14.33
2022-07-29T09:28:17.721Z,15.00
2022-07-29T09:31:35.044Z,11.00
2022-07-29T09:34:41.070Z,14.00
2022-07-29T09:37:46.985Z,15.67
2022-07-29T09:40:59.963Z,15.00
2022-07-29T09:44:11.560Z,13.00
2022-07-29T09:47:19.004Z,15.00
2022-07-29T09:50:37.230Z,11.67
2022-07-29T09:53:43.980Z,13.00
2022-07-29T09:56:52.726Z,15.00
2022-07-29T09:59:59.702Z,15.00
2022-07-29T10:03:04.992Z,13.33
2022-07-29T10:06:14.639Z,14.67
2022-07-29T10:09:22.300Z,15.67
2022-07-29T10:12:26.998Z,14.00
2022-07-29T10:15:33.370Z,14.67
2022-07-29T10:18:37.391Z,15.00
2022-07-29T10:21:45.294Z,15.00
2022-07-29T10:24:50.992Z,15.00
2022-07-29T10:27:57.649Z,15.33
2022-07-29T10:31:07.748Z,14.33
2022-07-29T10:34:22.685Z,13.00
2022-07-29T10:37:36.168Z,10.00
2022-07-29T10:41:10.876Z,11.67
2022-07-29T10:44:22.868Z,14.67
2022-07-29T10:47:30.384Z,17.00
2022-07-29T10:50:55.573Z,14.33
2022-07-29T10:54:06.019Z,15.00
2022-07-29T10:57:15.694Z,14.00
2022-07-29T11:00:32.342Z,15.33
2022-07-29T11:03:49.777Z,13.33
2022-07-29T11:07:10.729Z,15.00
2022-07-29T11:10:37.811Z,16.00
2022-07-29T11:13:57.048Z,15.00
2022-07-29T11:17:07.571Z,12.67
2022-07-29T11:20:51.116Z,14.00
2022-07-29T11:24:14.855Z,14.00
2022-07-29T11:27:40.743Z,14.33
2022-07-29T11:30:51.950Z,13.00
2022-07-29T11:33:56.967Z,11.67
2022-07-29T11:37:28.207Z,11.67
2022-07-29T11:40:33.113Z,13.00
2022-07-29T11:43:54.907Z,13.00
2022-07-29T11:46:59.493Z,12.67
2022-07-29T11:50:10.339Z,12.67
2022-07-29T11:53:16.414Z,11.33
2022-07-29T11:56:27.531Z,10.33
2022-07-29T11:59:44.987Z,11.67
2022-07-29T12:02:49.343Z,11.33
2022-07-29T12:05:53.721Z,9.00
2022-07-29T12:09:01.640Z,10.00
2022-07-29T12:12:22.188Z,9.67
2022-07-29T12:15:47.258Z,10.33
2022-07-29T12:19:02.460Z,11.00
2022-07-29T12:25:52.129Z,8.67
2022-07-29T12:28:58.874Z,9.67
2022-07-29T12:32:14.559Z,9.33
2022-07-29T12:35:25.474Z,8.33
2022-07-29T12:38:38.182Z,6.67
2022-07-29T12:41:46.119Z,7.67
2022-07-29T12:44:56.311Z,9.00
2022-07-29T12:48:02.908Z,7.33
2022-07-29T12:51:15.418Z,8.33
2022-07-29T12:54:20.207Z,9.00
2022-07-29T12:57:25.024Z,9.00
2022-07-29T13:00:32.350Z,8.33
2022-07-29T13:04:03.465Z,7.67
2022-07-29T13:07:15.568Z,6.67
2022-07-29T13:10:24.601Z,9.00
2022-07-29T13:13:29.352Z,7.33
2022-07-29T13:16:33.556Z,9.67
2022-07-29T13:19:42.840Z,9.00
2022-07-29T13:22:50.677Z,8.33
2022-07-29T13:25:54.777Z,10.00
2022-07-29T13:28:59.102Z,8.33
2022-07-29T13:32:03.425Z,9.33
2022-07-29T13:35:11.005Z,8.33
2022-07-29T13:38:17.969Z,9.33
2022-07-29T13:41:27.324Z,8.67
2022-07-29T13:44:32.797Z,10.00
2022-07-29T13:47:46.066Z,10.67
2022-07-29T13:51:05.130Z,9.33
2022-07-29T13:54:10.641Z,9.67
2022-07-29T13:57:16.536Z,9.33
2022-07-29T14:00:20.661Z,10.33
2022-07-29T14:03:25.727Z,9.67
2022-07-29T14:11:40.777Z,11.00
2022-07-29T14:14:48.266Z,8.67
2022-07-29T14:17:52.175Z,9.33
2022-07-29T14:21:00.775Z,10.33
2022-07-29T14:24:14.150Z,12.00
2022-07-29T14:27:37.333Z,9.67
2022-07-29T14:30:49.027Z,11.00
2022-07-29T14:33:54.973Z,7.00
2022-07-29T14:36:59.126Z,10.00
2022-07-29T14:40:18.479Z,10.33
2022-07-29T14:43:26.160Z,11.67
2022-07-29T14:46:42.318Z,10.00
2022-07-29T14:49:56.132Z,10.33
2022-07-29T14:53:02.269Z,10.00
2022-07-29T14:56:35.599Z,10.00
2022-07-29T14:59:52.021Z,9.33
2022-07-29T15:03:02.346Z,10.33
2022-07-29T15:06:06.605Z,9.67
2022-07-29T15:09:11.109Z,10.33
2022-07-29T15:12:15.454Z,11.67
2022-07-29T15:15:20.988Z,11.33
2022-07-29T15:18:25.484Z,11.00
2022-07-29T15:21:29.957Z,11.00
2022-07-29T15:24:33.719Z,10.33
2022-07-29T15:27:37.957Z,12.33
2022-07-29T15:31:26.321Z,12.67
2022-07-29T15:34:33.222Z,9.50
2022-07-29T15:37:48.948Z,14.00
2022-07-29T15:45:27.088Z,13.33
2022-07-29T15:48:41.462Z,12.33
2022-07-29T15:51:48.948Z,13.67
2022-07-29T15:58:29.429Z,18.00
2022-07-29T16:01:47.016Z,14.00
2022-07-29T16:04:51.590Z,14.67
2022-07-29T16:08:00.956Z,17.33
2022-07-29T16:11:05.709Z,15.33
2022-07-29T16:14:11.131Z,14.33
2022-07-29T16:17:20.578Z,12.67
2022-07-29T16:20:39.313Z,12.67
2022-07-29T16:24:01.126Z,15.00
2022-07-29T16:27:06.335Z,14.00
2022-07-29T16:30:11.539Z,13.67
2022-07-29T16:33:16.135Z,13.00
2022-07-29T16:36:20.919Z,14.00
2022-07-29T16:39:27.271Z,14.00
2022-07-29T16:42:46.072Z,14.67
2022-07-29T16:45:52.164Z,15.00
2022-07-29T16:48:58.220Z,17.00
2022-07-29T16:52:02.855Z,13.33
2022-07-29T16:55:09.738Z,15.33
2022-07-29T16:58:13.985Z,14.67
2022-07-29T17:01:18.303Z,16.00
2022-07-29T17:04:23.010Z,12.67
2022-07-29T17:07:27.534Z,15.00
2022-07-29T17:10:33.378Z,13.67
2022-07-29T17:13:37.365Z,15.67
2022-07-29T17:16:42.051Z,14.67
2022-07-29T17:19:57.438Z,13.00
2022-07-29T17:23:18.293Z,16.00
2022-07-29T17:26:23.997Z,14.33
2022-07-29T17:29:28.279Z,15.67
2022-07-29T17:33:02.272Z,15.00
2022-07-29T17:36:25.453Z,16.00
2022-07-29T17:39:29.385Z,15.33
2022-07-29T17:43:48.598Z,14.00
2022-07-29T17:46:54.090Z,16.00
2022-07-29T17:49:58.501Z,17.00
2022-07-29T17:53:27.101Z,17.00
2022-07-29T17:56:31.620Z,15.67
2022-07-29T17:59:35.926Z,14.67
2022-07-29T18:02:45.022Z,16.00
2022-07-29T18:05:49.751Z,13.00
2022-07-29T18:08:54.237Z,15.33
2022-07-29T18:28:02.567Z,17.67
2022-07-29T18:35:36.672Z,14.67
2022-07-29T18:40:09.514Z,16.00
2022-07-29T18:44:18.294Z,13.67
2022-07-29T18:47:24.157Z,18.00
2022-07-29T18:50:36.599Z,20.67
2022-07-29T18:53:40.551Z,21.33
2022-07-29T18:56:45.331Z,23.75
2022-07-29T18:59:50.891Z,23.75
2022-07-29T19:02:59.011Z,20.00
2022-07-29T19:06:04.278Z,21.33
2022-07-29T19:09:12.026Z,22.00
2022-07-29T19:12:18.891Z,23.00
2022-07-29T19:16:01.053Z,21.00
2022-07-29T19:19:11.349Z,22.00
2022-07-29T19:22:17.322Z,22.00
2022-07-29T19:25:21.740Z,20.00
2022-07-29T19:28:26.241Z,21.00
2022-07-29T19:32:00.615Z,19.00
2022-07-29T19:35:28.146Z,18.67
2022-07-29T19:38:32.347Z,19.00
2022-07-29T19:41:36.784Z,19.67
2022-07-29T19:44:40.936Z,19.00
2022-07-29T19:48:11.666Z,20.67
2022-07-29T19:51:17.126Z,18.00
2022-07-29T19:54:21.530Z,19.67
2022-07-29T19:57:26.166Z,18.67
2022-07-29T20:00:31.925Z,18.33
2022-07-29T20:04:20.256Z,18.00
2022-07-29T20:14:40.979Z,17.67
2022-07-29T20:17:45.460Z,16.33
2022-07-29T20:24:47.500Z,17.67
2022-07-29T20:27:53.663Z,18.00
2022-07-29T20:30:58.294Z,15.33
2022-07-29T20:34:03.687Z,19.00
2022-07-29T20:37:11.092Z,18.00
2022-07-29T20:40:18.222Z,16.33
2022-07-29T20:43:23.935Z,17.00
2022-07-29T20:46:28.134Z,15.67
2022-07-29T20:49:32.139Z,17.00
2022-07-29T20:52:41.061Z,17.33
2022-07-29T20:55:49.291Z,18.33
2022-07-29T20:59:01.305Z,16.67
2022-07-29T21:02:10.967Z,18.33
2022-07-29T21:05:17.167Z,18.67
2022-07-29T21:08:21.073Z,16.67
2022-07-29T21:11:43.855Z,16.67
2022-07-29T21:15:46.427Z,19.00
2022-07-29T21:18:51.243Z,16.33
2022-07-29T21:21:55.311Z,18.67
2022-07-29T21:24:59.563Z,18.67
2022-07-29T21:28:22.338Z,17.33
2022-07-29T21:31:56.629Z,18.33
2022-07-29T21:35:00.441Z,16.67
2022-07-29T21:38:05.137Z,16.67
2022-07-29T21:41:11.472Z,16.67
2022-07-29T21:44:18.686Z,19.00
2022-07-29T21:47:22.650Z,18.33
2022-07-29T21:50:27.849Z,18.67
2022-07-29T21:54:01.023Z,19.00
2022-07-29T21:57:07.406Z,18.00
2022-07-29T22:04:55.853Z,15.33
2022-07-29T22:08:00.858Z,16.67
2022-07-29T22:11:29.549Z,16.00
2022-07-29T22:14:38.965Z,16.67
2022-07-29T22:17:43.831Z,19.00
2022-07-29T22:21:05.425Z,18.33
2022-07-29T22:24:14.579Z,18.00
2022-07-29T22:31:59.654Z,17.33
2022-07-29T22:35:06.878Z,18.00
2022-07-29T22:38:13.748Z,19.00
2022-07-29T22:41:18.911Z,17.00
2022-07-29T22:44:24.091Z,17.00
2022-07-29T22:52:37.995Z,17.33
2022-07-29T22:55:43.990Z,17.33
2022-07-29T23:05:04.871Z,17.50
2022-07-29T23:08:11.113Z,17.67
2022-07-29T23:11:16.624Z,18.00
2022-07-29T23:14:21.128Z,17.67
2022-07-29T23:17:26.742Z,18.67
2022-07-29T23:20:31.615Z,18.33
2022-07-29T23:23:36.981Z,19.75
2022-07-29T23:27:15.674Z,19.00
2022-07-29T23:30:21.595Z,18.33
2022-07-29T23:33:25.900Z,19.50
2022-07-29T23:36:29.822Z,19.00
2022-07-29T23:39:34.243Z,19.25
2022-07-29T23:42:38.623Z,19.00
2022-07-29T23:45:48.638Z,19.33
2022-07-29T23:48:52.838Z,20.25
2022-07-29T23:51:57.348Z,19.25
2022-07-29T23:55:36.800Z,19.00
2022-07-29T23:58:42.719Z,19.75
